sensor_id;sensor_type;location;lat;lon;timestamp;temperature;humidity
23715;DHT22;12036;50.858;4.472;2023-02-08T00:01:36;-1.00;99.90
23715;DHT22;12036;50.858;4.472;2023-02-08T00:04:02;-1.10;99.90
23715;DHT22;12036;50.858;4.472;2023-02-08T00:06:28;-1.10;99.90
23715;DHT22;12036;50.858;4.472;2023-02-08T00:08:53;-1.10;99.90
23715;DHT22;12036;50.858;4.472;2023-02-08T00:11:19;-1.10;99.90
23715;DHT22;12036;50.858;4.472;2023-02-08T00:13:45;-1.10;99.90
23715;DHT22;12036;50.858;4.472;2023-02-08T00:16:12;-1.10;99.90
23715;DHT22;12036;50.858;4.472;2023-02-08T00:18:37;-1.10;99.90
23715;DHT22;12036;50.858;4.472;2023-02-08T00:21:15;-1.20;99.90
23715;DHT22;12036;50.858;4.472;2023-02-08T00:23:41;-1.20;99.90
23715;DHT22;12036;50.858;4.472;2023-02-08T00:26:07;-1.20;99.90
23715;DHT22;12036;50.858;4.472;2023-02-08T00:28:33;-1.20;99.90
23715;DHT22;12036;50.858;4.472;2023-02-08T00:30:58;-1.20;99.90
23715;DHT22;12036;50.858;4.472;2023-02-08T00:33:24;-1.30;99.90
23715;DHT22;12036;50.858;4.472;2023-02-08T00:35:49;-1.30;99.90
23715;DHT22;12036;50.858;4.472;2023-02-08T00:38:15;-1.30;99.90
23715;DHT22;12036;50.858;4.472;2023-02-08T00:40:41;-1.30;99.90
23715;DHT22;12036;50.858;4.472;2023-02-08T00:43:06;-1.30;99.90
23715;DHT22;12036;50.858;4.472;2023-02-08T00:45:32;-1.30;99.90
23715;DHT22;12036;50.858;4.472;2023-02-08T00:47:58;-1.40;99.90
23715;DHT22;12036;50.858;4.472;2023-02-08T00:50:23;-1.40;99.90
23715;DHT22;12036;50.858;4.472;2023-02-08T00:52:49;-1.40;99.90
23715;DHT22;12036;50.858;4.472;2023-02-08T00:55:15;-1.40;99.90
23715;DHT22;12036;50.858;4.472;2023-02-08T00:57:41;-1.40;99.90
23715;DHT22;12036;50.858;4.472;2023-02-08T01:00:07;-1.40;99.90
23715;DHT22;12036;50.858;4.472;2023-02-08T01:02:33;-1.40;99.90
23715;DHT22;12036;50.858;4.472;2023-02-08T01:04:59;-1.40;99.90
23715;DHT22;12036;50.858;4.472;2023-02-08T01:07:25;-1.50;99.90
23715;DHT22;12036;50.858;4.472;2023-02-08T01:09:51;-1.50;99.90
23715;DHT22;12036;50.858;4.472;2023-02-08T01:12:16;-1.50;99.90
23715;DHT22;12036;50.858;4.472;2023-02-08T01:14:42;-1.50;99.90
23715;DHT22;12036;50.858;4.472;2023-02-08T01:17:17;-1.50;99.90
23715;DHT22;12036;50.858;4.472;2023-02-08T01:19:43;-1.50;99.90
23715;DHT22;12036;50.858;4.472;2023-02-08T01:22:08;-1.60;99.90
23715;DHT22;12036;50.858;4.472;2023-02-08T01:24:34;-1.50;99.90
23715;DHT22;12036;50.858;4.472;2023-02-08T01:27:00;-1.60;99.90
23715;DHT22;12036;50.858;4.472;2023-02-08T01:29:26;-1.60;99.90
23715;DHT22;12036;50.858;4.472;2023-02-08T01:31:52;-1.60;99.90
23715;DHT22;12036;50.858;4.472;2023-02-08T01:34:17;-1.60;99.90
23715;DHT22;12036;50.858;4.472;2023-02-08T01:36:43;-1.60;99.90
23715;DHT22;12036;50.858;4.472;2023-02-08T01:39:10;-1.50;99.90
23715;DHT22;12036;50.858;4.472;2023-02-08T01:41:41;-1.50;99.90
23715;DHT22;12036;50.858;4.472;2023-02-08T01:46:41;-1.70;99.90
23715;DHT22;12036;50.858;4.472;2023-02-08T01:49:11;-1.70;99.90
23715;DHT22;12036;50.858;4.472;2023-02-08T01:52:02;-1.70;99.90
23715;DHT22;12036;50.858;4.472;2023-02-08T01:55:14;-1.70;99.90
23715;DHT22;12036;50.858;4.472;2023-02-08T01:57:42;-1.70;99.90
23715;DHT22;12036;50.858;4.472;2023-02-08T02:00:15;-1.70;99.90
23715;DHT22;12036;50.858;4.472;2023-02-08T02:02:43;-1.80;99.90
23715;DHT22;12036;50.858;4.472;2023-02-08T02:05:10;-1.80;99.90
23715;DHT22;12036;50.858;4.472;2023-02-08T02:07:37;-1.80;99.90
23715;DHT22;12036;50.858;4.472;2023-02-08T02:10:25;-1.80;99.90
23715;DHT22;12036;50.858;4.472;2023-02-08T02:12:52;-1.80;99.90
23715;DHT22;12036;50.858;4.472;2023-02-08T02:15:19;-1.80;99.90
23715;DHT22;12036;50.858;4.472;2023-02-08T02:17:45;-1.80;99.90
23715;DHT22;12036;50.858;4.472;2023-02-08T02:28:45;-1.90;99.90
23715;DHT22;12036;50.858;4.472;2023-02-08T02:34:46;-1.90;99.90
23715;DHT22;12036;50.858;4.472;2023-02-08T02:55:44;-2.10;99.90
23715;DHT22;12036;50.858;4.472;2023-02-08T02:58:12;-2.00;99.90
23715;DHT22;12036;50.858;4.472;2023-02-08T03:00:39;-2.10;99.90
23715;DHT22;12036;50.858;4.472;2023-02-08T03:03:05;-2.00;99.90
23715;DHT22;12036;50.858;4.472;2023-02-08T03:05:32;-2.00;99.90
23715;DHT22;12036;50.858;4.472;2023-02-08T03:10:37;-2.10;99.90
23715;DHT22;12036;50.858;4.472;2023-02-08T03:13:46;-2.10;99.90
23715;DHT22;12036;50.858;4.472;2023-02-08T03:16:25;-2.10;99.90
23715;DHT22;12036;50.858;4.472;2023-02-08T03:19:18;-2.10;99.90
23715;DHT22;12036;50.858;4.472;2023-02-08T03:21:57;-2.20;99.90
23715;DHT22;12036;50.858;4.472;2023-02-08T03:32:09;-2.10;99.90
23715;DHT22;12036;50.858;4.472;2023-02-08T03:34:46;-2.00;99.90
23715;DHT22;12036;50.858;4.472;2023-02-08T03:39:50;-1.90;99.90
23715;DHT22;12036;50.858;4.472;2023-02-08T03:42:22;-1.90;99.90
23715;DHT22;12036;50.858;4.472;2023-02-08T03:45:02;-2.00;99.90
23715;DHT22;12036;50.858;4.472;2023-02-08T03:47:34;-2.00;99.90
23715;DHT22;12036;50.858;4.472;2023-02-08T03:50:05;-2.00;99.90
23715;DHT22;12036;50.858;4.472;2023-02-08T03:52:32;-2.10;99.90
23715;DHT22;12036;50.858;4.472;2023-02-08T03:55:05;-2.20;99.90
23715;DHT22;12036;50.858;4.472;2023-02-08T03:58:00;-2.20;99.90
23715;DHT22;12036;50.858;4.472;2023-02-08T04:00:29;-2.20;99.90
23715;DHT22;12036;50.858;4.472;2023-02-08T04:03:08;-2.20;99.90
23715;DHT22;12036;50.858;4.472;2023-02-08T04:05:36;-2.20;99.90
23715;DHT22;12036;50.858;4.472;2023-02-08T04:08:02;-2.30;99.90
23715;DHT22;12036;50.858;4.472;2023-02-08T04:10:27;-2.30;99.90
23715;DHT22;12036;50.858;4.472;2023-02-08T04:12:53;-2.30;99.90
23715;DHT22;12036;50.858;4.472;2023-02-08T04:15:19;-2.30;99.90
23715;DHT22;12036;50.858;4.472;2023-02-08T04:17:44;-2.40;99.90
23715;DHT22;12036;50.858;4.472;2023-02-08T04:20:10;-2.40;99.90
23715;DHT22;12036;50.858;4.472;2023-02-08T04:22:36;-2.40;99.90
23715;DHT22;12036;50.858;4.472;2023-02-08T04:25:02;-2.40;99.90
23715;DHT22;12036;50.858;4.472;2023-02-08T04:27:27;-2.40;99.90
23715;DHT22;12036;50.858;4.472;2023-02-08T04:29:53;-2.40;99.90
23715;DHT22;12036;50.858;4.472;2023-02-08T04:32:19;-2.40;99.90
23715;DHT22;12036;50.858;4.472;2023-02-08T04:34:44;-2.40;99.90
23715;DHT22;12036;50.858;4.472;2023-02-08T04:37:10;-2.40;99.90
23715;DHT22;12036;50.858;4.472;2023-02-08T04:39:36;-2.40;99.90
23715;DHT22;12036;50.858;4.472;2023-02-08T04:42:02;-2.40;99.90
23715;DHT22;12036;50.858;4.472;2023-02-08T04:44:27;-2.40;99.90
23715;DHT22;12036;50.858;4.472;2023-02-08T04:46:55;-2.40;99.90
23715;DHT22;12036;50.858;4.472;2023-02-08T04:49:21;-2.40;99.90
23715;DHT22;12036;50.858;4.472;2023-02-08T04:51:46;-2.40;99.90
23715;DHT22;12036;50.858;4.472;2023-02-08T04:54:12;-2.40;99.90
23715;DHT22;12036;50.858;4.472;2023-02-08T04:56:37;-2.50;99.90
23715;DHT22;12036;50.858;4.472;2023-02-08T04:59:03;-2.50;99.90
23715;DHT22;12036;50.858;4.472;2023-02-08T05:01:29;-2.50;99.90
23715;DHT22;12036;50.858;4.472;2023-02-08T05:03:54;-2.50;99.90
23715;DHT22;12036;50.858;4.472;2023-02-08T05:06:20;-2.50;99.90
23715;DHT22;12036;50.858;4.472;2023-02-08T05:08:45;-2.50;99.90
23715;DHT22;12036;50.858;4.472;2023-02-08T05:11:11;-2.50;99.90
23715;DHT22;12036;50.858;4.472;2023-02-08T05:13:37;-2.50;99.90
23715;DHT22;12036;50.858;4.472;2023-02-08T05:16:03;-2.50;99.90
23715;DHT22;12036;50.858;4.472;2023-02-08T05:18:28;-2.50;99.90
23715;DHT22;12036;50.858;4.472;2023-02-08T05:20:59;-2.50;99.90
23715;DHT22;12036;50.858;4.472;2023-02-08T05:23:26;-2.40;99.90
23715;DHT22;12036;50.858;4.472;2023-02-08T05:25:52;-2.50;99.90
23715;DHT22;12036;50.858;4.472;2023-02-08T05:28:18;-2.50;99.90
23715;DHT22;12036;50.858;4.472;2023-02-08T05:30:45;-2.50;99.90
23715;DHT22;12036;50.858;4.472;2023-02-08T05:33:11;-2.50;99.90
23715;DHT22;12036;50.858;4.472;2023-02-08T05:35:36;-2.50;99.90
23715;DHT22;12036;50.858;4.472;2023-02-08T05:38:02;-2.50;99.90
23715;DHT22;12036;50.858;4.472;2023-02-08T05:40:28;-2.50;99.90
23715;DHT22;12036;50.858;4.472;2023-02-08T05:42:54;-2.50;99.90
23715;DHT22;12036;50.858;4.472;2023-02-08T05:45:19;-2.50;99.90
23715;DHT22;12036;50.858;4.472;2023-02-08T05:47:45;-2.50;99.90
23715;DHT22;12036;50.858;4.472;2023-02-08T05:50:12;-2.50;99.90
23715;DHT22;12036;50.858;4.472;2023-02-08T05:52:38;-2.50;99.90
23715;DHT22;12036;50.858;4.472;2023-02-08T05:55:04;-2.60;99.90
23715;DHT22;12036;50.858;4.472;2023-02-08T05:57:30;-2.50;99.90
23715;DHT22;12036;50.858;4.472;2023-02-08T05:59:56;-2.50;99.90
23715;DHT22;12036;50.858;4.472;2023-02-08T06:02:22;-2.50;99.90
23715;DHT22;12036;50.858;4.472;2023-02-08T06:04:47;-2.60;99.90
23715;DHT22;12036;50.858;4.472;2023-02-08T06:07:13;-2.60;99.90
23715;DHT22;12036;50.858;4.472;2023-02-08T06:09:39;-2.60;99.90
23715;DHT22;12036;50.858;4.472;2023-02-08T06:12:04;-2.60;99.90
23715;DHT22;12036;50.858;4.472;2023-02-08T06:14:30;-2.60;99.90
23715;DHT22;12036;50.858;4.472;2023-02-08T06:16:56;-2.60;99.90
23715;DHT22;12036;50.858;4.472;2023-02-08T06:19:22;-2.60;99.90
23715;DHT22;12036;50.858;4.472;2023-02-08T06:21:47;-2.60;99.90
23715;DHT22;12036;50.858;4.472;2023-02-08T06:24:13;-2.60;99.90
23715;DHT22;12036;50.858;4.472;2023-02-08T06:26:41;-2.60;99.90
23715;DHT22;12036;50.858;4.472;2023-02-08T06:29:07;-2.60;99.90
23715;DHT22;12036;50.858;4.472;2023-02-08T06:31:34;-2.60;99.90
23715;DHT22;12036;50.858;4.472;2023-02-08T06:33:59;-2.70;99.90
23715;DHT22;12036;50.858;4.472;2023-02-08T06:36:25;-2.60;99.90
23715;DHT22;12036;50.858;4.472;2023-02-08T06:38:52;-2.60;99.90
23715;DHT22;12036;50.858;4.472;2023-02-08T06:41:17;-2.70;99.90
23715;DHT22;12036;50.858;4.472;2023-02-08T06:43:43;-2.60;99.90
23715;DHT22;12036;50.858;4.472;2023-02-08T06:46:09;-2.60;99.90
23715;DHT22;12036;50.858;4.472;2023-02-08T06:48:35;-2.60;99.90
23715;DHT22;12036;50.858;4.472;2023-02-08T06:51:01;-2.60;99.90
23715;DHT22;12036;50.858;4.472;2023-02-08T06:53:27;-2.60;99.90
23715;DHT22;12036;50.858;4.472;2023-02-08T06:55:53;-2.60;99.90
23715;DHT22;12036;50.858;4.472;2023-02-08T06:58:19;-2.60;99.90
23715;DHT22;12036;50.858;4.472;2023-02-08T07:00:45;-2.60;99.90
23715;DHT22;12036;50.858;4.472;2023-02-08T07:03:12;-2.60;99.90
23715;DHT22;12036;50.858;4.472;2023-02-08T07:05:38;-2.60;99.90
23715;DHT22;12036;50.858;4.472;2023-02-08T07:08:04;-2.60;99.90
23715;DHT22;12036;50.858;4.472;2023-02-08T07:10:30;-2.60;99.90
23715;DHT22;12036;50.858;4.472;2023-02-08T07:12:56;-2.60;99.90
23715;DHT22;12036;50.858;4.472;2023-02-08T07:15:22;-2.60;99.90
23715;DHT22;12036;50.858;4.472;2023-02-08T07:17:48;-2.60;99.90
23715;DHT22;12036;50.858;4.472;2023-02-08T07:20:13;-2.60;99.90
23715;DHT22;12036;50.858;4.472;2023-02-08T07:22:40;-2.50;99.90
23715;DHT22;12036;50.858;4.472;2023-02-08T07:25:07;-2.50;99.90
23715;DHT22;12036;50.858;4.472;2023-02-08T07:27:33;-2.50;99.90
23715;DHT22;12036;50.858;4.472;2023-02-08T07:29:59;-2.50;99.90
23715;DHT22;12036;50.858;4.472;2023-02-08T07:32:24;-2.40;99.90
23715;DHT22;12036;50.858;4.472;2023-02-08T07:34:50;-2.40;99.90
23715;DHT22;12036;50.858;4.472;2023-02-08T07:37:16;-2.30;99.90
23715;DHT22;12036;50.858;4.472;2023-02-08T07:39:41;-2.20;99.90
23715;DHT22;12036;50.858;4.472;2023-02-08T07:42:08;-2.20;99.90
23715;DHT22;12036;50.858;4.472;2023-02-08T07:44:36;-2.30;99.90
23715;DHT22;12036;50.858;4.472;2023-02-08T07:47:02;-2.20;99.90
23715;DHT22;12036;50.858;4.472;2023-02-08T07:49:28;-2.10;99.90
23715;DHT22;12036;50.858;4.472;2023-02-08T07:51:53;-2.10;99.90
23715;DHT22;12036;50.858;4.472;2023-02-08T07:54:19;-2.10;99.90
23715;DHT22;12036;50.858;4.472;2023-02-08T07:56:45;-2.00;99.90
23715;DHT22;12036;50.858;4.472;2023-02-08T07:59:10;-1.90;99.90
23715;DHT22;12036;50.858;4.472;2023-02-08T08:01:36;-1.90;99.90
23715;DHT22;12036;50.858;4.472;2023-02-08T08:04:02;-1.90;99.90
23715;DHT22;12036;50.858;4.472;2023-02-08T08:06:27;-1.80;99.90
23715;DHT22;12036;50.858;4.472;2023-02-08T08:08:53;-1.70;99.90
23715;DHT22;12036;50.858;4.472;2023-02-08T08:11:20;-1.70;99.90
23715;DHT22;12036;50.858;4.472;2023-02-08T08:13:46;-1.60;99.90
23715;DHT22;12036;50.858;4.472;2023-02-08T08:16:12;-1.50;99.90
23715;DHT22;12036;50.858;4.472;2023-02-08T08:18:38;-1.40;99.90
23715;DHT22;12036;50.858;4.472;2023-02-08T08:21:04;-1.40;99.90
23715;DHT22;12036;50.858;4.472;2023-02-08T08:23:30;-1.20;99.90
23715;DHT22;12036;50.858;4.472;2023-02-08T08:26:16;-1.10;99.90
23715;DHT22;12036;50.858;4.472;2023-02-08T08:28:42;-1.00;99.90
23715;DHT22;12036;50.858;4.472;2023-02-08T08:31:16;-0.90;99.90
23715;DHT22;12036;50.858;4.472;2023-02-08T08:33:43;-0.80;99.90
23715;DHT22;12036;50.858;4.472;2023-02-08T08:36:09;-0.70;99.90
23715;DHT22;12036;50.858;4.472;2023-02-08T08:38:35;-0.50;99.90
23715;DHT22;12036;50.858;4.472;2023-02-08T08:41:09;-0.50;99.90
23715;DHT22;12036;50.858;4.472;2023-02-08T08:43:35;-0.30;99.90
23715;DHT22;12036;50.858;4.472;2023-02-08T08:46:01;-0.20;99.90
23715;DHT22;12036;50.858;4.472;2023-02-08T08:48:27;-0.10;99.90
23715;DHT22;12036;50.858;4.472;2023-02-08T08:50:53;0.00;99.90
23715;DHT22;12036;50.858;4.472;2023-02-08T08:53:19;0.10;99.90
23715;DHT22;12036;50.858;4.472;2023-02-08T08:55:46;0.30;99.90
23715;DHT22;12036;50.858;4.472;2023-02-08T08:58:12;0.40;99.90
23715;DHT22;12036;50.858;4.472;2023-02-08T09:00:38;0.50;99.90
23715;DHT22;12036;50.858;4.472;2023-02-08T09:03:03;0.60;99.90
23715;DHT22;12036;50.858;4.472;2023-02-08T09:05:29;0.70;99.90
23715;DHT22;12036;50.858;4.472;2023-02-08T09:07:55;0.90;99.90
23715;DHT22;12036;50.858;4.472;2023-02-08T09:10:20;1.00;99.90
23715;DHT22;12036;50.858;4.472;2023-02-08T09:12:46;1.10;99.90
23715;DHT22;12036;50.858;4.472;2023-02-08T09:15:12;1.20;99.90
23715;DHT22;12036;50.858;4.472;2023-02-08T09:17:37;1.30;99.90
23715;DHT22;12036;50.858;4.472;2023-02-08T09:20:04;1.40;99.90
23715;DHT22;12036;50.858;4.472;2023-02-08T09:22:30;1.60;99.90
23715;DHT22;12036;50.858;4.472;2023-02-08T09:24:55;1.70;99.90
23715;DHT22;12036;50.858;4.472;2023-02-08T09:27:21;1.80;99.90
23715;DHT22;12036;50.858;4.472;2023-02-08T09:29:46;1.90;99.90
23715;DHT22;12036;50.858;4.472;2023-02-08T09:32:12;2.00;99.90
23715;DHT22;12036;50.858;4.472;2023-02-08T09:34:38;2.00;99.90
23715;DHT22;12036;50.858;4.472;2023-02-08T09:37:03;2.20;99.90
23715;DHT22;12036;50.858;4.472;2023-02-08T09:39:31;2.30;99.90
23715;DHT22;12036;50.858;4.472;2023-02-08T09:44:57;2.70;99.90
23715;DHT22;12036;50.858;4.472;2023-02-08T09:47:41;2.80;99.90
23715;DHT22;12036;50.858;4.472;2023-02-08T09:50:30;3.00;99.90
23715;DHT22;12036;50.858;4.472;2023-02-08T09:53:20;3.20;99.90
23715;DHT22;12036;50.858;4.472;2023-02-08T09:55:52;3.40;99.90
23715;DHT22;12036;50.858;4.472;2023-02-08T10:00:52;3.70;99.90
23715;DHT22;12036;50.858;4.472;2023-02-08T10:03:31;3.80;99.90
23715;DHT22;12036;50.858;4.472;2023-02-08T10:05:58;3.90;99.00
23715;DHT22;12036;50.858;4.472;2023-02-08T10:08:24;4.00;98.10
23715;DHT22;12036;50.858;4.472;2023-02-08T10:10:55;4.10;96.00
23715;DHT22;12036;50.858;4.472;2023-02-08T10:22:31;4.40;95.30
23715;DHT22;12036;50.858;4.472;2023-02-08T10:34:24;4.80;92.70
23715;DHT22;12036;50.858;4.472;2023-02-08T10:36:54;4.90;91.50
23715;DHT22;12036;50.858;4.472;2023-02-08T10:39:28;5.10;91.20
23715;DHT22;12036;50.858;4.472;2023-02-08T10:41:55;5.20;90.50
23715;DHT22;12036;50.858;4.472;2023-02-08T10:44:33;5.20;89.00
23715;DHT22;12036;50.858;4.472;2023-02-08T10:50:15;5.30;90.40
23715;DHT22;12036;50.858;4.472;2023-02-08T10:52:33;5.40;90.20
23715;DHT22;12036;50.858;4.472;2023-02-08T10:55:00;5.50;90.00
23715;DHT22;12036;50.858;4.472;2023-02-08T10:57:32;5.60;86.80
23715;DHT22;12036;50.858;4.472;2023-02-08T11:00:05;5.70;83.70
23715;DHT22;12036;50.858;4.472;2023-02-08T11:02:34;5.90;79.90
23715;DHT22;12036;50.858;4.472;2023-02-08T11:05:10;5.90;79.30
23715;DHT22;12036;50.858;4.472;2023-02-08T11:07:37;5.90;79.80
23715;DHT22;12036;50.858;4.472;2023-02-08T11:13:04;6.00;75.50
23715;DHT22;12036;50.858;4.472;2023-02-08T11:15:52;5.90;76.10
23715;DHT22;12036;50.858;4.472;2023-02-08T11:18:26;6.00;76.70
23715;DHT22;12036;50.858;4.472;2023-02-08T11:20:55;6.00;77.10
23715;DHT22;12036;50.858;4.472;2023-02-08T11:23:40;6.10;74.80
23715;DHT22;12036;50.858;4.472;2023-02-08T11:26:33;6.20;75.60
23715;DHT22;12036;50.858;4.472;2023-02-08T11:29:11;6.40;75.00
23715;DHT22;12036;50.858;4.472;2023-02-08T11:31:38;6.50;72.80
23715;DHT22;12036;50.858;4.472;2023-02-08T11:34:08;6.80;65.70
23715;DHT22;12036;50.858;4.472;2023-02-08T11:36:43;7.30;59.50
23715;DHT22;12036;50.858;4.472;2023-02-08T11:41:55;7.50;55.80
23715;DHT22;12036;50.858;4.472;2023-02-08T11:46:50;7.90;54.70
23715;DHT22;12036;50.858;4.472;2023-02-08T11:49:26;8.50;51.50
23715;DHT22;12036;50.858;4.472;2023-02-08T11:51:52;8.90;44.00
23715;DHT22;12036;50.858;4.472;2023-02-08T11:54:45;9.30;42.80
23715;DHT22;12036;50.858;4.472;2023-02-08T11:57:17;9.40;43.00
23715;DHT22;12036;50.858;4.472;2023-02-08T11:59:47;9.30;42.40
23715;DHT22;12036;50.858;4.472;2023-02-08T12:02:49;9.20;43.10
23715;DHT22;12036;50.858;4.472;2023-02-08T12:05:18;8.80;44.50
23715;DHT22;12036;50.858;4.472;2023-02-08T12:11:01;8.20;46.90
23715;DHT22;12036;50.858;4.472;2023-02-08T12:22:15;7.80;48.60
23715;DHT22;12036;50.858;4.472;2023-02-08T12:30:57;7.90;48.30
23715;DHT22;12036;50.858;4.472;2023-02-08T12:39:31;7.90;49.20
23715;DHT22;12036;50.858;4.472;2023-02-08T12:45:16;8.00;48.40
23715;DHT22;12036;50.858;4.472;2023-02-08T12:48:08;8.10;48.00
23715;DHT22;12036;50.858;4.472;2023-02-08T12:50:51;8.20;48.20
23715;DHT22;12036;50.858;4.472;2023-02-08T12:53:36;8.20;49.10
23715;DHT22;12036;50.858;4.472;2023-02-08T12:56:07;8.20;49.80
23715;DHT22;12036;50.858;4.472;2023-02-08T12:58:41;8.10;50.40
23715;DHT22;12036;50.858;4.472;2023-02-08T13:03:48;8.30;49.80
23715;DHT22;12036;50.858;4.472;2023-02-08T13:06:24;8.30;49.80
23715;DHT22;12036;50.858;4.472;2023-02-08T13:09:05;8.30;49.00
23715;DHT22;12036;50.858;4.472;2023-02-08T13:11:57;8.40;49.10
23715;DHT22;12036;50.858;4.472;2023-02-08T13:14:36;8.40;49.00
23715;DHT22;12036;50.858;4.472;2023-02-08T13:17:15;8.40;49.40
23715;DHT22;12036;50.858;4.472;2023-02-08T13:20:03;8.40;50.30
23715;DHT22;12036;50.858;4.472;2023-02-08T13:22:36;8.50;50.30
23715;DHT22;12036;50.858;4.472;2023-02-08T13:25:03;8.50;51.60
23715;DHT22;12036;50.858;4.472;2023-02-08T13:27:31;8.50;51.60
23715;DHT22;12036;50.858;4.472;2023-02-08T13:29:56;8.50;51.70
23715;DHT22;12036;50.858;4.472;2023-02-08T13:32:26;8.60;51.30
23715;DHT22;12036;50.858;4.472;2023-02-08T13:35:02;8.70;52.00
23715;DHT22;12036;50.858;4.472;2023-02-08T13:37:33;8.70;52.50
23715;DHT22;12036;50.858;4.472;2023-02-08T13:40:00;8.80;52.10
23715;DHT22;12036;50.858;4.472;2023-02-08T13:42:36;8.90;51.50
23715;DHT22;12036;50.858;4.472;2023-02-08T13:45:05;8.90;51.30
23715;DHT22;12036;50.858;4.472;2023-02-08T13:47:47;8.90;51.20
23715;DHT22;12036;50.858;4.472;2023-02-08T13:52:52;8.90;50.50
23715;DHT22;12036;50.858;4.472;2023-02-08T14:01:22;9.10;51.00
23715;DHT22;12036;50.858;4.472;2023-02-08T14:06:47;9.00;50.90
23715;DHT22;12036;50.858;4.472;2023-02-08T14:11:46;9.00;51.10
23715;DHT22;12036;50.858;4.472;2023-02-08T14:17:07;8.90;50.90
23715;DHT22;12036;50.858;4.472;2023-02-08T14:19:34;8.90;50.70
23715;DHT22;12036;50.858;4.472;2023-02-08T14:24:42;8.80;51.60
23715;DHT22;12036;50.858;4.472;2023-02-08T14:30:02;8.80;51.20
23715;DHT22;12036;50.858;4.472;2023-02-08T14:32:32;8.80;51.60
23715;DHT22;12036;50.858;4.472;2023-02-08T14:37:38;9.00;51.30
23715;DHT22;12036;50.858;4.472;2023-02-08T14:45:27;8.90;50.70
23715;DHT22;12036;50.858;4.472;2023-02-08T14:47:56;9.00;50.40
23715;DHT22;12036;50.858;4.472;2023-02-08T14:50:29;8.90;50.60
23715;DHT22;12036;50.858;4.472;2023-02-08T14:53:18;8.80;51.30
23715;DHT22;12036;50.858;4.472;2023-02-08T14:56:00;8.70;51.50
23715;DHT22;12036;50.858;4.472;2023-02-08T14:58:34;8.60;52.30
23715;DHT22;12036;50.858;4.472;2023-02-08T15:01:05;8.70;50.90
23715;DHT22;12036;50.858;4.472;2023-02-08T15:03:32;8.70;50.30
23715;DHT22;12036;50.858;4.472;2023-02-08T15:06:23;8.70;50.60
23715;DHT22;12036;50.858;4.472;2023-02-08T15:08:53;8.70;50.50
23715;DHT22;12036;50.858;4.472;2023-02-08T15:11:23;8.70;49.80
23715;DHT22;12036;50.858;4.472;2023-02-08T15:13:50;8.70;49.20
23715;DHT22;12036;50.858;4.472;2023-02-08T15:16:17;8.60;49.40
23715;DHT22;12036;50.858;4.472;2023-02-08T15:18:45;8.50;49.70
23715;DHT22;12036;50.858;4.472;2023-02-08T15:21:31;8.50;49.70
23715;DHT22;12036;50.858;4.472;2023-02-08T15:26:48;8.30;51.00
23715;DHT22;12036;50.858;4.472;2023-02-08T15:29:17;8.20;51.30
23715;DHT22;12036;50.858;4.472;2023-02-08T15:31:43;8.10;51.60
23715;DHT22;12036;50.858;4.472;2023-02-08T15:34:09;8.10;51.30
23715;DHT22;12036;50.858;4.472;2023-02-08T15:36:36;8.20;51.00
23715;DHT22;12036;50.858;4.472;2023-02-08T15:39:35;8.10;51.50
23715;DHT22;12036;50.858;4.472;2023-02-08T15:42:04;7.90;52.00
23715;DHT22;12036;50.858;4.472;2023-02-08T15:44:33;7.90;52.30
23715;DHT22;12036;50.858;4.472;2023-02-08T15:47:04;7.70;53.10
23715;DHT22;12036;50.858;4.472;2023-02-08T15:49:40;7.70;53.70
23715;DHT22;12036;50.858;4.472;2023-02-08T15:52:10;7.60;54.10
23715;DHT22;12036;50.858;4.472;2023-02-08T15:54:39;7.50;54.50
23715;DHT22;12036;50.858;4.472;2023-02-08T15:57:08;7.40;54.60
23715;DHT22;12036;50.858;4.472;2023-02-08T15:59:37;7.30;54.80
23715;DHT22;12036;50.858;4.472;2023-02-08T16:02:30;7.20;55.00
23715;DHT22;12036;50.858;4.472;2023-02-08T16:04:57;7.20;54.80
23715;DHT22;12036;50.858;4.472;2023-02-08T16:07:32;7.20;54.50
23715;DHT22;12036;50.858;4.472;2023-02-08T16:09:59;7.20;54.40
23715;DHT22;12036;50.858;4.472;2023-02-08T16:12:26;7.10;54.20
23715;DHT22;12036;50.858;4.472;2023-02-08T16:14:53;7.10;54.50
23715;DHT22;12036;50.858;4.472;2023-02-08T16:17:42;7.00;54.40
23715;DHT22;12036;50.858;4.472;2023-02-08T16:20:30;6.90;55.00
23715;DHT22;12036;50.858;4.472;2023-02-08T16:23:04;6.80;55.10
23715;DHT22;12036;50.858;4.472;2023-02-08T16:25:46;6.70;55.00
23715;DHT22;12036;50.858;4.472;2023-02-08T16:28:29;6.50;55.40
23715;DHT22;12036;50.858;4.472;2023-02-08T16:31:00;6.40;55.60
23715;DHT22;12036;50.858;4.472;2023-02-08T16:33:28;6.30;56.50
23715;DHT22;12036;50.858;4.472;2023-02-08T16:35:55;6.20;57.60
23715;DHT22;12036;50.858;4.472;2023-02-08T16:38:28;6.00;58.90
23715;DHT22;12036;50.858;4.472;2023-02-08T16:40:55;5.90;59.30
23715;DHT22;12036;50.858;4.472;2023-02-08T16:43:27;5.70;60.00
23715;DHT22;12036;50.858;4.472;2023-02-08T16:48:54;5.50;63.50
23715;DHT22;12036;50.858;4.472;2023-02-08T16:51:46;5.40;66.30
23715;DHT22;12036;50.858;4.472;2023-02-08T16:54:14;5.20;68.60
23715;DHT22;12036;50.858;4.472;2023-02-08T16:56:42;5.00;70.20
23715;DHT22;12036;50.858;4.472;2023-02-08T16:59:11;4.90;72.40
23715;DHT22;12036;50.858;4.472;2023-02-08T17:01:38;4.80;73.20
23715;DHT22;12036;50.858;4.472;2023-02-08T17:04:04;4.60;75.40
23715;DHT22;12036;50.858;4.472;2023-02-08T17:06:32;4.50;76.80
23715;DHT22;12036;50.858;4.472;2023-02-08T17:08:59;4.30;78.80
23715;DHT22;12036;50.858;4.472;2023-02-08T17:11:26;4.20;80.30
23715;DHT22;12036;50.858;4.472;2023-02-08T17:13:52;4.10;81.70
23715;DHT22;12036;50.858;4.472;2023-02-08T17:16:20;4.00;83.90
23715;DHT22;12036;50.858;4.472;2023-02-08T17:18:47;3.80;86.40
23715;DHT22;12036;50.858;4.472;2023-02-08T17:21:13;3.70;88.10
23715;DHT22;12036;50.858;4.472;2023-02-08T17:23:39;3.60;89.50
23715;DHT22;12036;50.858;4.472;2023-02-08T17:26:21;3.50;90.40
23715;DHT22;12036;50.858;4.472;2023-02-08T17:28:48;3.40;90.70
23715;DHT22;12036;50.858;4.472;2023-02-08T17:31:17;3.30;91.30
23715;DHT22;12036;50.858;4.472;2023-02-08T17:33:43;3.20;92.10
23715;DHT22;12036;50.858;4.472;2023-02-08T17:36:11;3.20;93.30
23715;DHT22;12036;50.858;4.472;2023-02-08T17:38:38;3.10;94.00
23715;DHT22;12036;50.858;4.472;2023-02-08T17:41:06;3.00;94.40
23715;DHT22;12036;50.858;4.472;2023-02-08T17:43:32;2.90;95.10
23715;DHT22;12036;50.858;4.472;2023-02-08T17:45:58;2.80;95.70
23715;DHT22;12036;50.858;4.472;2023-02-08T17:48:23;2.80;96.30
23715;DHT22;12036;50.858;4.472;2023-02-08T17:50:49;2.70;96.70
23715;DHT22;12036;50.858;4.472;2023-02-08T17:53:17;2.60;97.00
23715;DHT22;12036;50.858;4.472;2023-02-08T17:55:43;2.60;97.30
23715;DHT22;12036;50.858;4.472;2023-02-08T17:58:10;2.50;97.70
23715;DHT22;12036;50.858;4.472;2023-02-08T18:00:36;2.40;98.10
23715;DHT22;12036;50.858;4.472;2023-02-08T18:03:02;2.30;98.60
23715;DHT22;12036;50.858;4.472;2023-02-08T18:05:28;2.30;99.10
23715;DHT22;12036;50.858;4.472;2023-02-08T18:07:54;2.20;99.40
23715;DHT22;12036;50.858;4.472;2023-02-08T18:10:22;2.10;99.90
23715;DHT22;12036;50.858;4.472;2023-02-08T18:12:47;2.10;99.90
23715;DHT22;12036;50.858;4.472;2023-02-08T18:15:18;2.00;99.90
23715;DHT22;12036;50.858;4.472;2023-02-08T18:17:45;2.00;99.90
23715;DHT22;12036;50.858;4.472;2023-02-08T18:20:12;1.90;99.90